Time;durP1;ratioP1;P1;durP2;ratioP2;P2;SDS_P1;SDS_P2;PMS_P1;PMS_P2;Temp;Humidity;BMP_temperature;BMP_pressure;BME280_temperature;BME280_humidity;BME280_pressure;Samples;Min_cycle;Max_cycle;Signal;HPM_P1;HPM_P2
2022/08/03 00:00:01;;;;;;;8.20;3.47;;;21.90;61.00;;;;;;9179476;19;20018;-66
2022/08/03 00:03:16;;;;;;;8.60;3.40;;;21.80;61.00;;;;;;9178992;19;20019;-67
2022/08/03 00:06:24;;;;;;;8.35;3.72;;;21.80;61.10;;;;;;9177982;19;20820;-67
2022/08/03 00:09:32;;;;;;;9.30;3.40;;;21.80;61.30;;;;;;9176434;19;20018;-67
2022/08/03 00:12:39;;;;;;;7.10;3.17;;;21.70;61.30;;;;;;9178649;19;20010;-66
2022/08/03 00:15:45;;;;;;;5.68;3.30;;;21.70;61.40;;;;;;9180761;19;20011;-67
2022/08/03 00:18:50;;;;;;;6.28;3.65;;;21.60;61.40;;;;;;9180032;19;20471;-67
2022/08/03 00:21:55;;;;;;;8.27;3.30;;;21.60;61.50;;;;;;9179071;19;20026;-67
2022/08/03 00:25:03;;;;;;;7.82;3.65;;;21.60;61.60;;;;;;9179314;19;20018;-66
2022/08/03 00:28:08;;;;;;;4.75;3.15;;;21.50;61.80;;;;;;9178071;19;20030;-67
2022/08/03 00:31:13;;;;;;;10.30;3.78;;;21.50;61.80;;;;;;9180548;19;20007;-67
2022/08/03 00:34:18;;;;;;;6.18;3.85;;;21.50;61.80;;;;;;9180075;19;20337;-67
2022/08/03 00:37:43;;;;;;;4.07;3.13;;;21.50;62.60;;;;;;9177831;19;20021;-67
2022/08/03 00:40:50;;;;;;;6.45;3.70;;;21.40;62.00;;;;;;9176650;19;20015;-67
2022/08/03 00:43:58;;;;;;;5.28;3.58;;;21.40;62.20;;;;;;9178553;19;20444;-66
2022/08/03 00:47:03;;;;;;;13.27;3.65;;;21.40;62.20;;;;;;9180851;19;20025;-66
2022/08/03 00:50:09;;;;;;;6.30;3.60;;;21.30;62.30;;;;;;9187015;19;20019;-66
2022/08/03 00:53:15;;;;;;;6.03;3.70;;;21.30;62.40;;;;;;9186392;19;20018;-67
2022/08/03 00:56:24;;;;;;;6.50;3.72;;;21.30;62.50;;;;;;9186702;19;20011;-66
2022/08/03 00:59:33;;;;;;;6.03;3.67;;;21.20;62.60;;;;;;9189005;19;20010;-66
2022/08/03 01:02:42;;;;;;;6.15;3.63;;;21.20;62.70;;;;;;9185829;19;20025;-66
2022/08/03 01:05:54;;;;;;;6.47;3.75;;;21.20;62.80;;;;;;9184154;19;20045;-66
2022/08/03 01:09:04;;;;;;;6.63;4.03;;;21.10;63.50;;;;;;9185088;19;20018;-66
2022/08/03 01:12:19;;;;;;;6.50;3.92;;;21.10;63.00;;;;;;9187828;19;20452;-67
2022/08/03 01:15:33;;;;;;;8.77;3.90;;;21.00;63.10;;;;;;9185982;19;20023;-68
2022/08/03 01:18:42;;;;;;;10.25;5.15;;;21.00;63.10;;;;;;9186814;19;20033;-67
2022/08/03 01:22:01;;;;;;;9.73;4.20;;;21.00;63.10;;;;;;9185624;19;20018;-66
2022/08/03 01:25:11;;;;;;;13.73;4.63;;;21.00;63.40;;;;;;9185069;19;20026;-67
2022/08/03 01:28:40;;;;;;;7.35;3.60;;;20.90;63.40;;;;;;9185567;19;20010;-67
2022/08/03 01:31:57;;;;;;;4.90;3.75;;;20.90;63.70;;;;;;9187039;19;20030;-67
2022/08/03 01:35:27;;;;;;;5.70;4.50;;;20.80;63.60;;;;;;9185240;19;20365;-67
2022/08/03 01:38:35;;;;;;;8.10;4.20;;;20.80;63.50;;;;;;9184698;19;20353;-67
2022/08/03 01:41:48;;;;;;;12.35;4.13;;;20.80;63.60;;;;;;9183267;19;20029;-66
2022/08/03 01:44:54;;;;;;;10.30;4.25;;;20.70;63.80;;;;;;9184894;19;20102;-68
2022/08/03 01:48:03;;;;;;;8.77;4.30;;;20.70;63.80;;;;;;9183063;19;20029;-67
2022/08/03 01:51:09;;;;;;;9.50;4.10;;;20.70;64.00;;;;;;9185765;19;20026;-66
2022/08/03 01:54:16;;;;;;;10.18;4.28;;;20.70;64.00;;;;;;9184752;19;20022;-66
2022/08/03 01:57:23;;;;;;;18.63;5.00;;;20.60;64.20;;;;;;9183375;19;20014;-66
2022/08/03 02:00:29;;;;;;;13.75;5.00;;;20.60;64.20;;;;;;9184336;19;20030;-67
2022/08/03 02:03:40;;;;;;;9.13;4.45;;;20.60;64.30;;;;;;9183835;19;20029;-67
2022/08/03 02:07:05;;;;;;;12.65;4.15;;;20.60;64.70;;;;;;9185075;19;20011;-66
2022/08/03 02:10:13;;;;;;;7.35;4.38;;;20.50;64.50;;;;;;9181100;19;20022;-67
2022/08/03 02:13:20;;;;;;;6.60;4.43;;;20.50;64.60;;;;;;9185797;19;20010;-66
2022/08/03 02:16:27;;;;;;;9.63;4.47;;;20.50;64.70;;;;;;9185454;19;20511;-67
2022/08/03 02:19:36;;;;;;;8.73;4.22;;;20.40;64.70;;;;;;9184541;19;20014;-66
2022/08/03 02:22:42;;;;;;;7.95;4.53;;;20.40;64.90;;;;;;9182721;19;20029;-67
2022/08/03 02:26:00;;;;;;;8.18;4.68;;;20.40;65.00;;;;;;9183033;19;20006;-66
2022/08/03 02:29:12;;;;;;;7.40;4.75;;;20.40;65.20;;;;;;9183198;19;20011;-67
2022/08/03 02:32:21;;;;;;;5.30;4.25;;;20.30;65.20;;;;;;9184988;19;20080;-67
2022/08/03 02:35:31;;;;;;;6.85;4.47;;;20.30;65.30;;;;;;9181525;19;20922;-66
2022/08/03 02:38:40;;;;;;;8.00;4.15;;;20.20;65.40;;;;;;9183342;19;20090;-66
2022/08/03 02:41:50;;;;;;;7.95;4.53;;;20.20;65.40;;;;;;9182682;19;20107;-67
2022/08/03 02:44:57;;;;;;;8.65;4.18;;;20.20;65.50;;;;;;9181954;19;20472;-67
2022/08/03 02:48:07;;;;;;;8.30;4.60;;;20.20;65.60;;;;;;9182290;19;20019;-66
2022/08/03 02:51:17;;;;;;;9.15;4.75;;;20.20;65.60;;;;;;9183617;19;20022;-66
2022/08/03 02:54:26;;;;;;;9.20;4.80;;;20.10;65.70;;;;;;9182063;19;20053;-67
2022/08/03 02:57:36;;;;;;;11.43;5.20;;;20.10;65.70;;;;;;9183227;19;20476;-67
2022/08/03 03:00:42;;;;;;;10.95;5.10;;;20.00;65.70;;;;;;9181697;19;20039;-67
2022/08/03 03:03:47;;;;;;;8.80;4.50;;;20.00;65.80;;;;;;9182390;19;20014;-66
2022/08/03 03:06:56;;;;;;;10.98;5.03;;;20.00;65.90;;;;;;9182446;19;20014;-66
2022/08/03 03:10:08;;;;;;;9.00;4.80;;;20.00;66.00;;;;;;9175317;19;20022;-66
2022/08/03 03:13:17;;;;;;;11.80;4.70;;;19.90;66.00;;;;;;9181485;19;20022;-66
2022/08/03 03:16:27;;;;;;;7.00;4.95;;;19.90;66.20;;;;;;9180988;19;20018;-66
2022/08/03 03:19:33;;;;;;;10.57;4.80;;;19.90;66.30;;;;;;9182091;19;20014;-67
2022/08/03 03:22:42;;;;;;;12.57;4.78;;;19.80;66.20;;;;;;9180239;19;20014;-66
2022/08/03 03:25:49;;;;;;;7.30;4.95;;;19.80;66.40;;;;;;9182692;19;20018;-66
2022/08/03 03:28:55;;;;;;;10.80;4.43;;;19.80;66.40;;;;;;9181538;19;20388;-66
2022/08/03 03:32:00;;;;;;;8.82;4.63;;;19.80;66.50;;;;;;9180025;19;20580;-66
2022/08/03 03:35:08;;;;;;;11.20;5.30;;;19.80;66.60;;;;;;9179966;19;20019;-66
2022/08/03 03:38:15;;;;;;;9.68;4.65;;;19.70;66.60;;;;;;9181526;19;20469;-67
2022/08/03 03:41:20;;;;;;;7.97;4.70;;;19.70;66.80;;;;;;9181205;19;20364;-67
2022/08/03 03:44:29;;;;;;;8.57;5.13;;;19.60;66.70;;;;;;9181418;19;20021;-66
2022/08/03 03:47:37;;;;;;;9.13;4.60;;;19.60;66.90;;;;;;9180338;19;20014;-66
2022/08/03 03:50:42;;;;;;;8.93;4.55;;;19.60;66.90;;;;;;9177742;19;20470;-66
2022/08/03 03:54:08;;;;;;;8.80;4.97;;;19.60;67.00;;;;;;9181326;19;20018;-66
2022/08/03 03:57:13;;;;;;;8.70;4.78;;;19.60;67.40;;;;;;9178066;19;20352;-67
2022/08/03 04:00:20;;;;;;;8.18;5.82;;;19.50;67.10;;;;;;9174564;19;20011;-66
2022/08/03 04:03:28;;;;;;;16.45;5.10;;;19.50;67.30;;;;;;9175241;19;20021;-65
2022/08/03 04:13:21;;;;;;;10.98;5.03;;;19.50;67.70;;;;;;9176182;19;20357;-66
2022/08/03 04:16:30;;;;;;;9.45;4.38;;;19.40;67.60;;;;;;9172625;19;20022;-67
2022/08/03 04:19:40;;;;;;;13.27;5.63;;;19.40;67.80;;;;;;9172605;19;20022;-68
2022/08/03 04:22:49;;;;;;;11.43;5.05;;;19.40;67.80;;;;;;9183640;19;20019;-66
2022/08/03 04:25:59;;;;;;;12.35;5.25;;;19.40;68.00;;;;;;9196368;19;20019;-66
2022/08/03 04:29:12;;;;;;;8.23;4.82;;;19.40;68.20;;;;;;9194007;19;20026;-66
2022/08/03 04:32:19;;;;;;;8.83;4.77;;;19.30;68.10;;;;;;9195567;19;20082;-67
2022/08/03 04:35:27;;;;;;;11.98;5.30;;;19.30;68.20;;;;;;9193571;19;20391;-66
2022/08/03 04:39:01;;;;;;;9.95;4.95;;;19.30;68.30;;;;;;9194505;19;20019;-67
2022/08/03 04:42:12;;;;;;;11.43;5.10;;;19.30;68.60;;;;;;9193875;19;20483;-66
2022/08/03 04:45:20;;;;;;;12.90;5.22;;;19.30;68.60;;;;;;9195982;19;20018;-66
2022/08/03 04:48:25;;;;;;;13.40;5.80;;;19.30;68.70;;;;;;9193657;19;20011;-66
2022/08/03 04:51:33;;;;;;;11.55;5.82;;;19.30;68.80;;;;;;9196043;19;20329;-67
2022/08/03 04:54:42;;;;;;;12.13;5.68;;;19.30;68.90;;;;;;9196265;19;20026;-67
2022/08/03 04:57:57;;;;;;;17.33;5.03;;;19.30;69.20;;;;;;9195905;19;20010;-67
2022/08/03 05:01:02;;;;;;;14.07;6.00;;;19.40;69.30;;;;;;9193953;19;20497;-66
2022/08/03 05:04:07;;;;;;;13.32;5.35;;;19.30;69.30;;;;;;9193528;19;20049;-66
2022/08/03 05:07:12;;;;;;;12.65;6.22;;;19.40;69.50;;;;;;9193533;19;20355;-66
2022/08/03 05:10:17;;;;;;;11.93;5.25;;;19.40;69.60;;;;;;9188835;19;20025;-66
2022/08/03 05:13:25;;;;;;;10.70;5.45;;;19.40;69.70;;;;;;9193903;19;20014;-66
2022/08/03 05:16:35;;;;;;;11.45;6.47;;;19.40;69.90;;;;;;9192910;19;20015;-67
2022/08/03 05:19:40;;;;;;;11.30;5.50;;;19.50;70.10;;;;;;9193380;19;20014;-67
2022/08/03 05:22:45;;;;;;;16.35;6.15;;;19.50;70.10;;;;;;9196007;19;20472;-67
2022/08/03 05:25:50;;;;;;;17.90;6.70;;;19.50;70.20;;;;;;9191515;19;20022;-66
2022/08/03 05:28:58;;;;;;;10.57;6.43;;;19.60;70.50;;;;;;9194651;19;20021;-66
2022/08/03 05:32:03;;;;;;;18.83;6.93;;;19.60;70.80;;;;;;9193254;19;20655;-68
2022/08/03 05:35:12;;;;;;;13.25;6.93;;;19.70;70.80;;;;;;9184987;19;20014;-67
2022/08/03 05:38:37;;;;;;;11.73;6.57;;;19.70;71.00;;;;;;9185358;19;20017;-67
2022/08/03 05:41:43;;;;;;;20.15;6.53;;;19.80;71.10;;;;;;9183592;19;20098;-67
2022/08/03 05:44:53;;;;;;;14.48;6.35;;;19.90;71.30;;;;;;9182989;19;20025;-66
2022/08/03 05:47:58;;;;;;;13.75;6.30;;;19.90;71.60;;;;;;9185473;19;20022;-68
2022/08/03 05:51:05;;;;;;;13.70;6.05;;;20.10;71.70;;;;;;9183390;19;20011;-66
2022/08/03 05:54:10;;;;;;;14.65;6.68;;;20.20;71.80;;;;;;9182868;19;20018;-66
2022/08/03 05:57:18;;;;;;;15.70;5.93;;;20.30;71.90;;;;;;9184811;19;20472;-68
2022/08/03 06:00:28;;;;;;;14.95;6.65;;;20.50;72.10;;;;;;9183177;19;20017;-66
2022/08/03 06:03:33;;;;;;;14.65;5.60;;;20.60;72.10;;;;;;9182483;19;20014;-66
2022/08/03 06:06:37;;;;;;;11.15;5.93;;;20.80;72.10;;;;;;9182958;19;20029;-67
2022/08/03 06:09:42;;;;;;;14.80;6.53;;;20.90;72.20;;;;;;9177961;19;20018;-65
2022/08/03 06:13:08;;;;;;;19.33;6.18;;;21.10;72.30;;;;;;9184310;19;20472;-67
2022/08/03 06:16:15;;;;;;;22.45;5.85;;;21.30;72.10;;;;;;9182245;19;20018;-66
2022/08/03 06:19:22;;;;;;;15.15;5.60;;;21.50;72.20;;;;;;9183250;19;20357;-66
2022/08/03 06:22:27;;;;;;;18.58;6.82;;;21.70;72.10;;;;;;9179999;19;20855;-67
2022/08/03 06:25:32;;;;;;;15.13;6.20;;;21.90;72.00;;;;;;9183546;19;20549;-66
2022/08/03 06:28:37;;;;;;;15.98;5.97;;;22.20;72.00;;;;;;9183380;19;20023;-67
2022/08/03 06:32:00;;;;;;;15.52;6.38;;;22.40;71.90;;;;;;9181407;19;20488;-67
2022/08/03 06:35:05;;;;;;;15.40;5.13;;;22.60;71.70;;;;;;9183792;19;20018;-66
2022/08/03 06:38:11;;;;;;;22.33;5.18;;;22.80;71.50;;;;;;9183239;19;20010;-67
2022/08/03 06:41:17;;;;;;;14.25;4.30;;;23.00;71.30;;;;;;9181880;19;20022;-67
2022/08/03 06:44:23;;;;;;;14.82;5.18;;;23.30;71.20;;;;;;9181098;19;20029;-66
2022/08/03 06:47:31;;;;;;;23.27;4.25;;;23.50;70.90;;;;;;9181410;19;20022;-67
2022/08/03 06:50:37;;;;;;;13.10;4.35;;;23.60;70.70;;;;;;9180466;19;20364;-67
2022/08/03 06:53:42;;;;;;;11.75;3.95;;;23.80;70.40;;;;;;9181533;19;20630;-67
2022/08/03 06:56:47;;;;;;;15.40;4.47;;;24.00;70.10;;;;;;9180944;19;20342;-67
2022/08/03 06:59:53;;;;;;;17.02;4.22;;;24.10;69.90;;;;;;9182681;19;20011;-67
2022/08/03 07:03:18;;;;;;;10.95;3.85;;;24.30;69.70;;;;;;9181963;19;20471;-67
2022/08/03 07:06:23;;;;;;;15.57;3.60;;;24.40;69.50;;;;;;9177603;19;20019;-67
2022/08/03 07:09:28;;;;;;;15.48;3.35;;;24.50;69.30;;;;;;9175753;19;20069;-67
2022/08/03 07:12:37;;;;;;;10.45;3.45;;;24.50;69.10;;;;;;9182301;19;20014;-68
2022/08/03 07:16:00;;;;;;;17.88;3.70;;;24.60;68.90;;;;;;9181583;19;20388;-67
2022/08/03 07:19:07;;;;;;;10.48;3.05;;;24.70;68.90;;;;;;9177044;19;20029;-67
2022/08/03 07:22:12;;;;;;;15.13;2.85;;;24.80;68.90;;;;;;9181171;19;20022;-67
2022/08/03 07:25:18;;;;;;;14.93;3.13;;;24.80;68.70;;;;;;9179924;19;20030;-67
2022/08/03 07:28:23;;;;;;;14.48;3.13;;;25.00;68.60;;;;;;9178879;19;20482;-67
2022/08/03 07:31:29;;;;;;;17.65;3.15;;;25.10;68.40;;;;;;9177332;19;20026;-68
2022/08/03 07:34:41;;;;;;;8.88;2.78;;;25.20;68.30;;;;;;9179975;19;20029;-66
2022/08/03 07:37:46;;;;;;;20.35;3.00;;;25.20;68.10;;;;;;9180110;19;20024;-68
2022/08/03 07:40:58;;;;;;;13.48;3.15;;;25.30;68.00;;;;;;9172383;19;20018;-67
2022/08/03 07:44:04;;;;;;;12.38;2.10;;;25.40;67.80;;;;;;9175099;19;20019;-67
2022/08/03 07:47:09;;;;;;;11.75;2.50;;;25.50;67.70;;;;;;9172806;19;20018;-67
2022/08/03 07:50:29;;;;;;;12.15;2.35;;;25.50;67.50;;;;;;9171890;19;20014;-67
2022/08/03 07:53:34;;;;;;;8.65;2.25;;;25.70;67.40;;;;;;9171156;19;20017;-67
2022/08/03 07:56:51;;;;;;;16.83;3.13;;;25.70;67.10;;;;;;9172758;19;20011;-66
2022/08/03 07:59:59;;;;;;;10.32;3.25;;;25.80;67.00;;;;;;9173152;19;20011;-67
2022/08/03 08:03:15;;;;;;;17.80;2.72;;;26.00;67.70;;;;;;9173830;19;20057;-68
2022/08/03 08:06:23;;;;;;;11.80;2.38;;;26.00;66.80;;;;;;9172411;19;20680;-69
2022/08/03 08:09:33;;;;;;;15.23;2.70;;;26.20;66.80;;;;;;9170401;19;20022;-67
2022/08/03 08:12:39;;;;;;;7.35;2.38;;;26.20;66.60;;;;;;9170610;19;20010;-67
2022/08/03 08:15:44;;;;;;;15.45;3.05;;;26.40;66.60;;;;;;9170671;19;20467;-68
2022/08/03 08:18:51;;;;;;;15.43;3.80;;;26.50;66.50;;;;;;9171387;19;20014;-67
2022/08/03 08:22:00;;;;;;;9.70;2.05;;;26.60;66.30;;;;;;9171904;19;20017;-66
2022/08/03 08:25:09;;;;;;;16.40;3.08;;;26.70;66.10;;;;;;9171723;19;20054;-67
2022/08/03 08:28:15;;;;;;;8.18;2.25;;;26.80;65.90;;;;;;9172513;19;20025;-66
2022/08/03 08:31:37;;;;;;;15.93;2.50;;;27.00;65.70;;;;;;9172207;19;20119;-66
2022/08/03 08:34:42;;;;;;;14.80;2.22;;;27.10;65.50;;;;;;9172620;19;20021;-67
2022/08/03 08:37:49;;;;;;;15.68;2.42;;;27.30;65.40;;;;;;9173258;19;20010;-67
2022/08/03 08:40:57;;;;;;;15.40;2.90;;;27.40;65.00;;;;;;9171225;19;20026;-65
2022/08/03 08:44:03;;;;;;;21.50;3.05;;;27.60;65.00;;;;;;9172396;19;20114;-67
2022/08/03 08:47:10;;;;;;;13.73;3.40;;;27.70;64.70;;;;;;9173775;19;20471;-66
2022/08/03 08:50:22;;;;;;;23.65;2.90;;;27.80;64.40;;;;;;9169135;19;20602;-67
2022/08/03 08:53:39;;;;;;;11.95;2.60;;;28.00;64.10;;;;;;9171693;19;20022;-66
2022/08/03 08:56:45;;;;;;;11.40;2.20;;;28.10;63.70;;;;;;9173028;19;20432;-66
2022/08/03 08:59:50;;;;;;;11.50;2.60;;;28.30;63.50;;;;;;9172366;19;20451;-66
2022/08/03 09:03:02;;;;;;;15.38;2.88;;;28.40;63.20;;;;;;9169362;19;20018;-67
2022/08/03 09:06:10;;;;;;;13.98;2.72;;;28.50;63.00;;;;;;9165777;19;20010;-67
2022/08/03 09:09:19;;;;;;;12.18;2.42;;;28.70;62.90;;;;;;9170036;19;20029;-66
2022/08/03 09:12:46;;;;;;;20.40;2.78;;;28.80;62.50;;;;;;9177676;19;20014;-66
2022/08/03 09:16:14;;;;;;;14.27;2.65;;;28.90;62.30;;;;;;9180385;19;20014;-66
2022/08/03 09:19:20;;;;;;;22.30;3.97;;;29.10;61.90;;;;;;9179487;19;20011;-67
2022/08/03 09:22:28;;;;;;;13.32;2.85;;;29.30;62.00;;;;;;9181528;19;20048;-66
2022/08/03 09:25:38;;;;;;;19.38;3.17;;;29.40;61.80;;;;;;9179946;19;20055;-65
2022/08/03 09:28:46;;;;;;;19.63;3.55;;;29.60;61.40;;;;;;9178680;19;20019;-67
2022/08/03 09:32:05;;;;;;;13.57;2.63;;;29.70;61.30;;;;;;9180193;19;20018;-66
2022/08/03 09:35:11;;;;;;;18.48;2.72;;;29.90;60.90;;;;;;9179520;19;20774;-68
2022/08/03 09:38:22;;;;;;;23.83;2.65;;;30.10;60.80;;;;;;9180836;19;20022;-67
2022/08/03 09:41:30;;;;;;;19.13;2.78;;;30.20;60.40;;;;;;9176863;19;20018;-66
2022/08/03 09:44:40;;;;;;;17.20;2.60;;;30.40;60.10;;;;;;9181232;19;20052;-66
2022/08/03 09:47:51;;;;;;;19.52;3.17;;;30.50;59.80;;;;;;9181073;19;20033;-67
2022/08/03 09:50:57;;;;;;;20.48;3.08;;;30.70;59.60;;;;;;9182730;19;20496;-69
2022/08/03 09:54:28;;;;;;;15.48;2.80;;;30.90;59.40;;;;;;9184571;19;20011;-68
2022/08/03 09:57:35;;;;;;;29.02;3.03;;;31.00;58.90;;;;;;9185746;19;20014;-69
2022/08/03 10:00:56;;;;;;;23.25;3.05;;;31.20;58.90;;;;;;9185758;19;20048;-69
2022/08/03 10:04:01;;;;;;;17.65;2.70;;;31.30;58.40;;;;;;9183692;19;20983;-68
2022/08/03 10:07:10;;;;;;;24.30;3.72;;;31.50;58.40;;;;;;9182872;19;20029;-69
2022/08/03 10:10:16;;;;;;;24.15;3.60;;;31.60;58.00;;;;;;9180950;19;20015;-67
2022/08/03 10:13:39;;;;;;;15.00;3.17;;;31.80;57.80;;;;;;9180052;19;20031;-68
2022/08/03 10:16:44;;;;;;;22.13;3.60;;;31.90;57.30;;;;;;9182979;19;20018;-67
2022/08/03 10:19:51;;;;;;;19.27;3.47;;;32.00;57.10;;;;;;9181016;19;20360;-70
2022/08/03 10:23:00;;;;;;;22.30;3.40;;;32.20;56.90;;;;;;9181830;19;20029;-70
2022/08/03 10:26:10;;;;;;;26.20;4.03;;;32.20;56.60;;;;;;9182736;19;20041;-68
2022/08/03 10:29:23;;;;;;;22.15;3.65;;;32.40;56.40;;;;;;9184401;19;20014;-69
2022/08/03 10:32:32;;;;;;;18.67;3.67;;;32.40;55.90;;;;;;9181735;19;20044;-69
2022/08/03 10:35:41;;;;;;;27.05;3.22;;;32.50;55.90;;;;;;9183046;19;20021;-69
2022/08/03 10:38:51;;;;;;;24.02;3.55;;;32.50;55.70;;;;;;9182355;19;20436;-68
2022/08/03 10:41:58;;;;;;;24.00;4.65;;;32.60;55.50;;;;;;9183505;19;20050;-69
2022/08/03 10:45:16;;;;;;;22.73;4.80;;;32.70;55.90;;;;;;9182411;19;20127;-69
2022/08/03 10:48:22;;;;;;;21.65;3.72;;;32.80;54.90;;;;;;9182036;19;20014;-68
2022/08/03 10:51:30;;;;;;;34.97;5.10;;;32.90;55.00;;;;;;9180625;19;20033;-68
2022/08/03 10:58:02;;;;;;;22.95;4.00;;;33.00;54.10;;;;;;9181267;19;20014;-68
2022/08/03 11:01:15;;;;;;;20.50;3.95;;;33.10;54.20;;;;;;9181446;19;20025;-69
2022/08/03 11:04:25;;;;;;;39.30;4.95;;;33.20;53.90;;;;;;9176916;19;20021;-68
2022/08/03 11:07:30;;;;;;;22.70;3.35;;;33.30;53.60;;;;;;9177718;19;20014;-68
2022/08/03 11:10:35;;;;;;;30.25;4.78;;;33.40;53.60;;;;;;9171320;19;20104;-68
2022/08/03 11:13:59;;;;;;;26.33;4.20;;;33.50;53.60;;;;;;9168302;19;20019;-69
2022/08/03 11:17:13;;;;;;;30.23;3.72;;;33.60;53.10;;;;;;9174178;19;20022;-68
2022/08/03 11:20:47;;;;;;;33.13;4.63;;;33.60;52.90;;;;;;9170750;19;20033;-69
2022/08/03 11:23:52;;;;;;;28.00;4.93;;;33.80;52.60;;;;;;9168526;19;20014;-70
2022/08/03 11:27:19;;;;;;;18.50;3.28;;;33.80;52.70;;;;;;9168220;19;20027;-69
2022/08/03 11:30:28;;;;;;;20.42;3.30;;;34.00;52.30;;;;;;9167764;19;20018;-68
2022/08/03 11:33:36;;;;;;;33.20;3.42;;;34.00;52.40;;;;;;9164767;19;20014;-69
2022/08/03 11:37:12;;;;;;;23.13;3.63;;;34.10;52.10;;;;;;9167734;19;20117;-68
2022/08/03 11:40:43;;;;;;;23.75;4.05;;;34.20;51.70;;;;;;9168881;19;20064;-68
2022/08/03 11:43:50;;;;;;;16.45;3.33;;;34.40;51.60;;;;;;9171007;19;20023;-68
2022/08/03 11:46:56;;;;;;;22.88;4.53;;;34.50;51.90;;;;;;9171606;19;20479;-68
2022/08/03 11:50:10;;;;;;;28.80;4.07;;;34.50;51.60;;;;;;9172191;19;20025;-69
2022/08/03 11:53:20;;;;;;;25.02;4.05;;;34.60;51.20;;;;;;9172241;19;20029;-69
2022/08/03 11:56:25;;;;;;;24.55;3.90;;;34.70;51.00;;;;;;9175872;19;20037;-68
2022/08/03 11:59:34;;;;;;;22.60;3.63;;;34.70;50.90;;;;;;9171910;19;20035;-68
2022/08/03 12:02:39;;;;;;;24.55;3.58;;;34.70;50.60;;;;;;9175862;19;20090;-71
2022/08/03 12:05:52;;;;;;;25.95;3.72;;;34.80;50.60;;;;;;9170575;19;20026;-69
2022/08/03 12:08:58;;;;;;;17.15;3.83;;;34.80;50.20;;;;;;9172872;19;20363;-69
2022/08/03 12:12:04;;;;;;;16.20;3.30;;;34.80;50.20;;;;;;9163876;19;20018;-68
2022/08/03 12:15:10;;;;;;;16.48;3.10;;;34.90;50.10;;;;;;9169044;19;20022;-69
2022/08/03 12:18:19;;;;;;;26.00;3.92;;;34.90;49.90;;;;;;9169805;19;20013;-69
2022/08/03 12:21:27;;;;;;;18.10;3.22;;;35.00;49.80;;;;;;9169939;19;20495;-68
2022/08/03 12:24:42;;;;;;;23.58;3.50;;;35.10;49.70;;;;;;9172727;19;20022;-69
2022/08/03 12:27:51;;;;;;;18.23;3.05;;;35.10;49.30;;;;;;9167109;19;20042;-69
2022/08/03 12:30:56;;;;;;;23.10;3.70;;;35.10;49.40;;;;;;9168539;19;20018;-69
2022/08/03 12:34:05;;;;;;;15.23;3.42;;;35.10;49.20;;;;;;9165341;19;20014;-68
2022/08/03 12:37:13;;;;;;;22.02;2.88;;;35.20;49.00;;;;;;9166982;19;20006;-69
2022/08/03 12:40:27;;;;;;;15.18;3.08;;;35.30;48.70;;;;;;9166752;19;20018;-69
2022/08/03 12:43:34;;;;;;;21.50;3.13;;;35.30;48.80;;;;;;9170606;19;20019;-69
2022/08/03 12:46:43;;;;;;;26.52;3.20;;;35.40;48.80;;;;;;9175409;19;20115;-69
2022/08/03 12:49:55;;;;;;;9.10;2.22;;;35.40;48.60;;;;;;9183514;19;20020;-69
2022/08/03 12:53:05;;;;;;;13.63;2.53;;;35.40;48.30;;;;;;9179872;19;20014;-69
2022/08/03 12:56:13;;;;;;;17.63;2.85;;;35.50;48.20;;;;;;9180551;19;20483;-68
2022/08/03 12:59:27;;;;;;;19.77;3.25;;;35.60;48.10;;;;;;9182784;19;20014;-68
2022/08/03 13:02:38;;;;;;;11.95;2.55;;;35.50;47.70;;;;;;9187377;19;20010;-68
2022/08/03 13:05:50;;;;;;;10.40;2.95;;;35.60;47.90;;;;;;9182978;19;20038;-68
2022/08/03 13:09:09;;;;;;;18.02;2.53;;;35.60;47.90;;;;;;9184697;19;20019;-68
2022/08/03 13:12:19;;;;;;;11.23;2.15;;;35.60;47.40;;;;;;9186057;19;20010;-67
2022/08/03 13:15:29;;;;;;;19.25;2.40;;;35.60;47.60;;;;;;9187248;19;20523;-68
2022/08/03 13:18:53;;;;;;;11.75;2.28;;;35.60;47.50;;;;;;9186912;19;20018;-68
2022/08/03 13:22:01;;;;;;;16.67;2.85;;;35.60;47.50;;;;;;9186069;19;20035;-68
2022/08/03 13:25:11;;;;;;;16.35;2.47;;;35.60;47.40;;;;;;9187559;19;20011;-68
2022/08/03 13:28:16;;;;;;;19.23;2.58;;;35.60;47.30;;;;;;9186348;19;20025;-68
2022/08/03 13:31:32;;;;;;;15.23;2.10;;;35.50;47.10;;;;;;9185166;19;20019;-68
2022/08/03 13:34:37;;;;;;;13.00;2.20;;;35.50;47.10;;;;;;9180138;19;20011;-69
2022/08/03 13:37:42;;;;;;;14.48;2.30;;;35.50;46.80;;;;;;9186644;19;20519;-68
2022/08/03 13:40:54;;;;;;;12.73;2.75;;;35.50;46.70;;;;;;9186642;19;20015;-69
2022/08/03 13:44:02;;;;;;;12.07;2.75;;;35.40;46.50;;;;;;9184922;19;20010;-67
2022/08/03 13:47:27;;;;;;;19.60;3.15;;;35.40;46.50;;;;;;9184642;19;20121;-67
2022/08/03 13:50:38;;;;;;;16.25;2.50;;;35.40;46.60;;;;;;9184356;19;20618;-68
2022/08/03 13:53:51;;;;;;;12.00;2.67;;;35.40;46.30;;;;;;9182275;19;20033;-68
2022/08/03 13:57:00;;;;;;;15.63;2.92;;;35.40;46.30;;;;;;9181964;19;20368;-67
2022/08/03 14:00:25;;;;;;;16.10;2.38;;;35.30;46.30;;;;;;9184904;19;20017;-67
2022/08/03 14:03:33;;;;;;;12.60;2.95;;;35.30;46.30;;;;;;9183418;19;20006;-68
2022/08/03 14:06:43;;;;;;;19.50;2.90;;;35.30;46.30;;;;;;9183245;19;20019;-67
2022/08/03 14:09:50;;;;;;;13.75;2.47;;;35.30;46.30;;;;;;9179339;19;20022;-67
2022/08/03 14:12:59;;;;;;;17.98;2.80;;;35.30;46.30;;;;;;9185372;19;20018;-68
2022/08/03 14:16:09;;;;;;;17.27;2.92;;;35.30;46.10;;;;;;9184964;19;20014;-68
2022/08/03 14:19:23;;;;;;;14.50;2.50;;;35.20;46.00;;;;;;9182797;19;20472;-68
2022/08/03 14:22:30;;;;;;;15.88;3.00;;;35.20;46.00;;;;;;9183205;19;20018;-68
2022/08/03 14:25:40;;;;;;;14.20;2.33;;;35.20;46.00;;;;;;9182157;19;20014;-69
2022/08/03 14:28:57;;;;;;;14.02;2.00;;;35.10;45.90;;;;;;9183220;19;20018;-68
2022/08/03 14:32:04;;;;;;;16.73;3.25;;;35.00;45.70;;;;;;9184082;19;20022;-68
2022/08/03 14:35:18;;;;;;;11.55;2.17;;;35.00;45.70;;;;;;9179606;19;20484;-68
2022/08/03 14:38:32;;;;;;;18.58;2.65;;;35.00;45.80;;;;;;9183499;19;20022;-69
2022/08/03 14:41:37;;;;;;;14.27;2.50;;;34.90;45.70;;;;;;9181711;19;20025;-68
2022/08/03 14:44:45;;;;;;;12.18;1.92;;;34.90;45.70;;;;;;9183817;19;20025;-68
2022/08/03 14:47:53;;;;;;;14.23;2.38;;;34.80;45.60;;;;;;9180149;19;20030;-67
2022/08/03 14:51:22;;;;;;;10.98;2.03;;;34.80;45.60;;;;;;9182919;19;20018;-68
2022/08/03 14:54:31;;;;;;;8.32;2.20;;;34.80;45.60;;;;;;9180196;19;20015;-68
2022/08/03 14:57:36;;;;;;;9.70;2.05;;;34.80;45.50;;;;;;9181866;19;20516;-67
2022/08/03 15:00:44;;;;;;;9.90;2.05;;;34.70;45.40;;;;;;9182646;19;20085;-67
2022/08/03 15:03:49;;;;;;;15.32;1.85;;;34.70;45.30;;;;;;9181204;19;20029;-69
2022/08/03 15:06:57;;;;;;;13.15;2.40;;;34.70;45.30;;;;;;9181874;19;20017;-69
2022/08/03 15:10:02;;;;;;;21.55;2.75;;;34.70;45.30;;;;;;9176445;19;20028;-69
2022/08/03 15:13:10;;;;;;;10.77;2.30;;;34.70;45.40;;;;;;9181253;19;20025;-67
2022/08/03 15:16:23;;;;;;;8.23;1.60;;;34.70;45.40;;;;;;9182502;19;20527;-68
2022/08/03 15:19:34;;;;;;;17.23;2.10;;;34.70;45.20;;;;;;9180573;19;20057;-68
2022/08/03 15:23:02;;;;;;;8.63;1.60;;;34.70;45.30;;;;;;9182763;19;20007;-68
2022/08/03 15:26:07;;;;;;;5.63;2.00;;;34.70;45.30;;;;;;9180416;19;20018;-68
2022/08/03 15:29:37;;;;;;;10.02;2.25;;;34.70;45.20;;;;;;9180622;19;20014;-68
2022/08/03 15:33:07;;;;;;;11.20;2.13;;;34.60;45.00;;;;;;9180226;19;20011;-68
2022/08/03 15:36:18;;;;;;;12.60;1.90;;;34.60;45.10;;;;;;9179032;19;20022;-69
2022/08/03 15:39:23;;;;;;;10.90;1.73;;;34.50;45.10;;;;;;9181385;19;20077;-69
2022/08/03 15:42:29;;;;;;;18.20;2.40;;;34.50;45.00;;;;;;9179249;19;20034;-68
2022/08/03 15:45:34;;;;;;;15.40;2.03;;;34.40;44.90;;;;;;9176636;19;20021;-68
2022/08/03 15:48:43;;;;;;;15.63;2.35;;;34.40;45.50;;;;;;9179973;19;20021;-69
2022/08/03 15:51:48;;;;;;;13.32;2.45;;;34.40;44.70;;;;;;9178827;19;20018;-69
2022/08/03 15:54:56;;;;;;;4.55;1.35;;;34.40;44.80;;;;;;9178261;19;20011;-69
2022/08/03 15:58:01;;;;;;;10.68;1.83;;;34.40;44.80;;;;;;9180248;19;20021;-69
2022/08/03 16:01:27;;;;;;;7.22;1.73;;;34.30;44.80;;;;;;9179536;19;20023;-69
2022/08/03 16:04:35;;;;;;;8.10;1.95;;;34.30;44.80;;;;;;9178038;19;20029;-69
2022/08/03 16:07:47;;;;;;;6.00;1.40;;;34.20;44.70;;;;;;9178854;19;20026;-68
2022/08/03 16:11:08;;;;;;;11.77;1.90;;;34.20;44.70;;;;;;9175015;19;20449;-68
2022/08/03 16:14:17;;;;;;;4.85;1.27;;;34.10;44.70;;;;;;9179967;19;20023;-68
2022/08/03 16:17:37;;;;;;;;;;;34.10;44.70;;;;;;9177730;19;20361;-68
2022/08/03 16:20:47;;;;;;;7.35;1.88;;;34.00;45.00;;;;;;9178179;19;19935;-69
2022/08/03 16:23:56;;;;;;;4.43;1.60;;;34.00;45.00;;;;;;9177599;19;20019;-69
2022/08/03 16:27:05;;;;;;;4.18;1.08;;;33.90;45.00;;;;;;9179276;19;20018;-69
2022/08/03 16:30:19;;;;;;;5.95;1.33;;;33.80;44.90;;;;;;9177974;19;20029;-68